Time;durP1;ratioP1;P1;durP2;ratioP2;P2;SDS_P1;SDS_P2;PMS_P1;PMS_P2;Temp;Humidity;BMP_temperature;BMP_pressure;BME280_temperature;BME280_humidity;BME280_pressure;Samples;Min_cycle;Max_cycle;Signal;HPM_P1;HPM_P2
2024/01/10 00:00:37;;;;;;;117.72;13.48;;;;;;;-1.39;100.00;103023.41;5043521;28;20545;-71
2024/01/10 00:03:03;;;;;;;119.32;13.60;;;;;;;-1.41;100.00;103004.25;5037966;28;20826;-71
2024/01/10 00:05:28;;;;;;;30.48;9.23;;;;;;;-1.32;100.00;103009.31;5044618;28;20888;-72
2024/01/10 00:07:54;;;;;;;;;;;;;;;-1.27;100.00;103006.59;5045211;28;20037;-72
2024/01/10 00:10:21;;;;;;;60.85;11.35;;;;;;;-1.32;100.00;102990.09;5055926;28;19920;-71
2024/01/10 00:12:47;;;;;;;103.45;14.65;;;;;;;-1.39;100.00;102986.72;5053150;28;20404;-72
2024/01/10 00:15:12;;;;;;;;;;;;;;;-1.25;100.00;103001.31;5016664;28;20022;-72
2024/01/10 00:17:39;;;;;;;42.67;9.25;;;;;;;-1.15;100.00;103005.47;5028151;28;19923;-72
2024/01/10 00:20:06;;;;;;;80.85;11.73;;;;;;;-1.29;100.00;102977.81;5027889;28;20115;-72
2024/01/10 00:22:31;;;;;;;37.83;10.38;;;;;;;-1.23;100.00;102982.06;5044497;28;20506;-71
2024/01/10 00:24:57;;;;;;;;;;;;;;;-1.23;100.00;102984.66;5061464;28;20025;-71
2024/01/10 00:27:22;;;;;;;27.97;10.03;;;;;;;-1.15;100.00;102987.13;5044578;28;19912;-71
2024/01/10 00:29:47;;;;;;;53.55;12.70;;;;;;;-1.16;100.00;102977.53;5037856;28;20190;-72
2024/01/10 00:32:13;;;;;;;73.90;15.77;;;;;;;-1.18;100.00;102974.09;5045847;28;20068;-71
2024/01/10 00:34:38;;;;;;;36.22;10.93;;;;;;;-1.28;100.00;102966.41;5026971;28;20067;-71
2024/01/10 00:37:06;;;;;;;43.38;11.15;;;;;;;-1.34;100.00;102958.66;5061377;28;20041;-71
2024/01/10 00:39:32;;;;;;;43.53;10.98;;;;;;;-1.22;100.00;102977.66;5027932;28;20040;-72
2024/01/10 00:41:57;;;;;;;;;;;;;;;-1.17;100.00;102978.41;5044960;28;20029;-72
2024/01/10 00:44:22;;;;;;;29.07;10.30;;;;;;;-1.17;100.00;102971.44;5056166;28;19912;-72
2024/01/10 00:46:48;;;;;;;;;;;;;;;-1.16;100.00;102961.81;5042533;28;20377;-71
2024/01/10 00:49:13;;;;;;;33.60;10.73;;;;;;;-1.21;100.00;102961.91;5033697;28;19913;-72
2024/01/10 00:51:39;;;;;;;31.63;9.10;;;;;;;-1.09;100.00;102963.41;5025312;28;20098;-72
2024/01/10 00:54:23;;;;;;;24.20;8.35;;;;;;;-1.02;100.00;102967.63;5045257;28;20087;-72
2024/01/10 00:57:07;;;;;;;21.23;8.27;;;;;;;-1.13;100.00;102946.00;5038532;28;20083;-72
2024/01/10 00:59:51;;;;;;;22.50;7.35;;;;;;;-1.07;100.00;102956.38;5038429;28;20102;-71
2024/01/10 01:02:16;;;;;;;;;;;;;;;-0.96;100.00;102964.88;5050042;28;20033;-72
2024/01/10 01:04:41;;;;;;;23.30;8.67;;;;;;;-0.97;100.00;102951.78;5064972;28;19975;-71
2024/01/10 01:07:07;;;;;;;22.00;6.75;;;;;;;-1.06;100.00;102939.75;5043610;28;20033;-72
2024/01/10 01:09:33;;;;;;;;;;;;;;;-1.08;100.00;102934.56;5046676;28;20118;-71
2024/01/10 01:11:58;;;;;;;;;;;;;;;-1.08;100.00;102941.53;5048703;28;20775;-72
2024/01/10 01:14:23;;;;;;;21.05;6.13;;;;;;;-1.08;100.00;102938.91;5036833;28;19913;-72
2024/01/10 01:16:49;;;;;;;;;;;;;;;-0.99;100.00;102943.94;5047396;28;20033;-71
2024/01/10 01:19:14;;;;;;;21.80;8.23;;;;;;;-0.98;100.00;102943.06;5043211;28;20318;-71
2024/01/10 01:21:39;;;;;;;23.55;10.05;;;;;;;-1.14;100.00;102933.81;5046738;28;20140;-71
2024/01/10 01:24:05;;;;;;;;;;;;;;;-0.97;100.00;102952.66;5047590;28;20091;-72
2024/01/10 01:26:30;;;;;;;33.37;10.13;;;;;;;-0.92;100.00;102942.91;5060916;28;19917;-71
2024/01/10 01:28:55;;;;;;;30.15;10.05;;;;;;;-0.94;100.00;102939.47;5048856;28;20282;-72
2024/01/10 01:31:21;;;;;;;37.88;11.73;;;;;;;-1.01;100.00;102930.00;5049127;28;20041;-71
2024/01/10 01:33:46;;;;;;;;;;;;;;;-0.90;100.00;102942.88;5047810;28;20036;-72
2024/01/10 01:36:11;;;;;;;31.67;10.63;;;;;;;-0.88;100.00;102944.56;5053682;28;19919;-71
2024/01/10 01:38:37;;;;;;;38.63;9.80;;;;;;;-0.94;100.00;102931.59;5048131;28;20029;-71
2024/01/10 01:41:02;;;;;;;23.38;7.65;;;;;;;-0.90;100.00;102937.66;5036172;28;20451;-71
2024/01/10 01:43:28;;;;;;;23.60;9.27;;;;;;;-0.85;100.00;102941.88;5043586;28;20031;-71
2024/01/10 01:45:55;;;;;;;20.60;7.15;;;;;;;-1.22;100.00;102920.00;5048647;28;20028;-71
2024/01/10 01:48:22;;;;;;;22.95;7.22;;;;;;;-1.36;100.00;102920.28;5030767;28;20095;-72
2024/01/10 01:50:51;;;;;;;20.00;8.00;;;;;;;-1.32;100.00;102943.78;5048741;28;20450;-72
2024/01/10 01:53:17;;;;;;;20.08;7.57;;;;;;;-1.09;100.00;102958.16;5048915;28;20041;-72
2024/01/10 01:55:44;;;;;;;19.27;7.53;;;;;;;-1.00;100.00;102960.59;5037945;28;20055;-72
2024/01/10 01:58:11;;;;;;;23.33;9.65;;;;;;;-0.97;100.00;102957.03;5040820;28;20044;-72
2024/01/10 02:00:37;;;;;;;22.52;8.70;;;;;;;-0.89;100.00;102958.59;5038854;28;20034;-72
2024/01/10 02:03:03;;;;;;;;;;;;;;;-0.78;100.00;102963.59;5047867;28;20104;-72
2024/01/10 02:05:28;;;;;;;23.92;11.23;;;;;;;-0.79;100.00;102954.00;5048306;28;20449;-71
2024/01/10 02:07:55;;;;;;;22.33;10.20;;;;;;;-0.78;100.00;102947.00;5048221;28;20063;-72
2024/01/10 02:10:21;;;;;;;20.05;7.70;;;;;;;-1.08;100.00;102921.44;5047120;28;20446;-71
2024/01/10 02:12:46;;;;;;;;;;;;;;;-1.09;100.00;102930.19;5046486;28;20025;-72
2024/01/10 02:15:14;;;;;;;18.75;7.82;;;;;;;-1.14;100.00;102928.56;5030578;28;19913;-72
2024/01/10 02:17:40;;;;;;;17.15;8.55;;;;;;;-0.99;100.00;102941.31;5039504;28;20442;-72
2024/01/10 02:20:33;;;;;;;;;;;;;;;-0.94;100.00;102939.47;5046995;28;20037;-72
2024/01/10 02:22:59;;;;;;;16.50;7.80;;;;;;;-0.89;100.00;102928.88;5045275;28;19916;-71
2024/01/10 02:25:24;;;;;;;;;;;;;;;-0.85;100.00;102930.53;5047089;28;20056;-71
2024/01/10 02:27:55;;;;;;;20.37;8.30;;;;;;;-0.87;100.00;102917.47;5047998;28;19922;-71
2024/01/10 02:30:21;;;;;;;40.40;10.13;;;;;;;-0.89;100.00;102914.00;5019454;28;20044;-72
2024/01/10 02:32:46;;;;;;;;;;;;;;;-1.24;100.00;102898.19;5045005;28;20400;-72
2024/01/10 02:35:11;;;;;;;;;;;;;;;-1.34;100.00;102894.91;5052057;28;19916;-72
2024/01/10 02:37:36;;;;;;;11.40;5.23;;;;;;;-1.42;100.00;102895.09;5047792;28;19928;-71
2024/01/10 02:40:02;;;;;;;15.15;6.03;;;;;;;-1.49;100.00;102890.88;5016348;28;20024;-72
2024/01/10 02:42:28;;;;;;;13.50;6.28;;;;;;;-1.34;100.00;102924.59;5047609;28;20029;-71
2024/01/10 02:44:53;;;;;;;;;;;;;;;-1.13;100.00;102938.16;5046518;28;20021;-71
2024/01/10 02:47:19;;;;;;;16.33;5.85;;;;;;;-1.03;100.00;102930.94;5063223;28;20471;-72
2024/01/10 02:49:44;;;;;;;17.52;7.22;;;;;;;-0.97;100.00;102931.66;5046174;28;20119;-71
2024/01/10 02:52:19;;;;;;;19.17;8.05;;;;;;;-1.14;100.00;102907.59;5029222;28;20029;-71
2024/01/10 02:54:45;;;;;;;31.15;7.85;;;;;;;-1.40;100.00;102906.41;5044151;28;20514;-71
2024/01/10 02:57:10;;;;;;;;;;;;;;;-1.82;100.00;102897.66;5040071;28;20029;-71
2024/01/10 02:59:36;;;;;;;47.38;11.55;;;;;;;-1.80;100.00;102924.69;5047426;28;19952;-71
2024/01/10 03:02:03;;;;;;;91.30;13.25;;;;;;;-1.80;100.00;102936.03;5045933;28;20557;-71
2024/01/10 03:04:29;;;;;;;253.35;21.88;;;;;;;-1.76;100.00;102950.75;5062339;28;20055;-71
2024/01/10 03:06:54;;;;;;;61.53;13.27;;;;;;;-2.00;100.00;102938.13;5046013;28;20045;-71
2024/01/10 03:09:20;;;;;;;;;;;;;;;-2.00;100.00;102941.63;5047664;28;20039;-71
2024/01/10 03:11:51;;;;;;;138.10;16.87;;;;;;;-1.89;100.00;102953.66;5045931;28;19919;-71
2024/01/10 03:14:16;;;;;;;63.35;12.30;;;;;;;-2.10;100.00;102954.91;5039720;28;20562;-71
2024/01/10 03:16:45;;;;;;;73.45;14.15;;;;;;;-1.96;100.00;102966.00;5029091;28;20035;-72
2024/01/10 03:19:11;;;;;;;91.82;17.38;;;;;;;-1.88;100.00;102964.09;5011631;28;20103;-71
2024/01/10 03:21:36;;;;;;;31.90;10.07;;;;;;;-1.83;100.00;102964.88;5014238;28;20029;-71
2024/01/10 03:24:01;;;;;;;;;;;;;;;-1.84;100.00;102973.63;5042932;28;20041;-72
2024/01/10 03:26:28;;;;;;;86.35;14.88;;;;;;;-1.92;100.00;102965.91;5037442;28;19919;-71
2024/01/10 03:28:57;;;;;;;;;;;;;;;-2.31;100.00;102936.06;5045861;28;20033;-71
2024/01/10 03:31:23;;;;;;;158.00;18.83;;;;;;;-2.49;100.00;102936.38;5041341;28;19913;-71
2024/01/10 03:33:48;;;;;;;124.18;15.10;;;;;;;-2.56;100.00;102946.91;5046528;28;20040;-71
2024/01/10 03:36:23;;;;;;;;;;;;;;;-2.76;100.00;102946.38;5016724;28;20037;-71
2024/01/10 03:38:48;;;;;;;146.57;15.63;;;;;;;-2.44;100.00;102963.31;5046513;28;20278;-70
2024/01/10 03:41:14;;;;;;;;;;;;;;;-2.69;100.00;102949.72;5060426;28;20037;-71
2024/01/10 03:43:39;;;;;;;100.78;15.77;;;;;;;-2.56;100.00;102953.91;5036656;28;19917;-71
2024/01/10 03:46:05;;;;;;;;;;;;;;;-2.71;100.00;102946.31;5046620;28;20466;-71
2024/01/10 03:48:31;;;;;;;73.60;12.80;;;;;;;-2.50;100.00;102959.03;5044954;28;19913;-71
2024/01/10 03:50:56;;;;;;;;;;;;;;;-2.40;100.00;102959.75;5028851;28;20028;-71
2024/01/10 03:53:22;;;;;;;87.53;14.20;;;;;;;-2.66;100.00;102929.66;5061409;28;19916;-72
2024/01/10 03:55:47;;;;;;;;;;;;;;;-2.43;100.00;102952.81;5016609;28;20492;-72
2024/01/10 03:58:12;;;;;;;155.93;15.60;;;;;;;-2.50;100.00;102942.50;5022686;28;20652;-71
2024/01/10 04:00:37;;;;;;;;;;;;;;;-2.67;100.00;102938.41;5046447;28;20032;-71
2024/01/10 04:03:03;;;;;;;60.93;13.17;;;;;;;-2.53;100.00;102950.38;5049923;28;19913;-71
2024/01/10 04:05:28;;;;;;;84.53;14.30;;;;;;;-2.42;100.00;102959.78;5019719;28;20797;-71
2024/01/10 04:07:56;;;;;;;;;;;;;;;-2.50;100.00;102950.34;5022523;28;20459;-71
2024/01/10 04:10:22;;;;;;;72.53;14.32;;;;;;;-2.41;100.00;102951.06;5045226;28;19935;-71
2024/01/10 04:12:48;;;;;;;;;;;;;;;-2.53;100.00;102948.59;5045969;28;20068;-72
2024/01/10 04:15:22;;;;;;;51.00;12.13;;;;;;;-2.46;100.00;102952.88;5038726;28;20096;-71
2024/01/10 04:17:48;;;;;;;44.60;11.10;;;;;;;-2.53;100.00;102950.38;5044352;28;20033;-71
2024/01/10 04:20:13;;;;;;;;;;;;;;;-2.56;100.00;102954.75;5040112;28;20029;-71
2024/01/10 04:22:38;;;;;;;40.57;11.57;;;;;;;-2.63;100.00;102960.13;5044339;28;19928;-71
2024/01/10 04:25:05;;;;;;;;;;;;;;;-2.45;100.00;102964.22;5044983;28;20552;-71
2024/01/10 04:27:30;;;;;;;28.67;8.38;;;;;;;-2.14;100.00;102986.34;5033730;28;19932;-72
2024/01/10 04:29:56;;;;;;;31.75;10.15;;;;;;;-2.03;100.00;102980.09;5021405;28;20033;-71
2024/01/10 04:32:21;;;;;;;;;;;;;;;-2.04;100.00;102980.97;5028191;28;20380;-72
2024/01/10 04:34:46;;;;;;;26.97;9.83;;;;;;;-1.83;100.00;102984.94;5043776;28;19916;-72
2024/01/10 04:37:12;;;;;;;32.42;10.02;;;;;;;-1.75;100.00;102978.69;5044773;28;20772;-71
2024/01/10 04:39:42;;;;;;;;;;;;;;;-1.64;100.00;102972.38;5014409;28;20115;-71
2024/01/10 04:42:25;;;;;;;27.33;10.05;;;;;;;-1.60;100.00;102971.44;5044373;28;20003;-71
2024/01/10 04:44:51;;;;;;;31.15;9.88;;;;;;;-1.56;100.00;102960.00;5043945;28;20033;-71
2024/01/10 04:47:29;;;;;;;21.40;7.78;;;;;;;-1.59;100.00;102957.44;5029228;28;20507;-71
2024/01/10 04:49:54;;;;;;;23.38;8.15;;;;;;;-1.56;100.00;102952.16;5006129;28;20099;-71
2024/01/10 04:52:19;;;;;;;24.45;8.45;;;;;;;-1.61;100.00;102943.53;5028412;28;20037;-72
2024/01/10 04:54:44;;;;;;;19.65;7.80;;;;;;;-1.94;100.00;102906.63;5034258;28;20090;-71
2024/01/10 04:57:12;;;;;;;;;;;;;;;-1.62;100.00;102931.31;5038615;28;20158;-71
2024/01/10 04:59:37;;;;;;;19.90;7.78;;;;;;;-1.47;100.00;102931.00;5060956;28;19912;-71
2024/01/10 05:02:03;;;;;;;21.85;8.02;;;;;;;-1.37;100.00;102936.91;5014934;28;20500;-71
2024/01/10 05:04:28;;;;;;;26.63;10.38;;;;;;;-1.61;100.00;102912.94;5023290;28;20052;-71
2024/01/10 05:07:03;;;;;;;;;;;;;;;-1.72;100.00;102900.06;5041704;28;20037;-71
2024/01/10 05:09:28;;;;;;;21.95;9.18;;;;;;;-1.60;100.00;102905.94;5044853;28;19942;-71
2024/01/10 05:11:54;;;;;;;;;;;;;;;-1.71;100.00;102901.81;5044053;28;20040;-71
2024/01/10 05:14:20;;;;;;;17.67;8.07;;;;;;;-1.56;100.00;102897.13;5052799;28;19920;-71
2024/01/10 05:16:47;;;;;;;20.63;8.40;;;;;;;-1.67;100.00;102891.25;5042785;28;20021;-71
2024/01/10 05:19:13;;;;;;;24.98;9.15;;;;;;;-1.42;100.00;102908.19;5037770;28;20641;-71
2024/01/10 05:21:38;;;;;;;;;;;;;;;-1.44;100.00;102889.00;5027834;28;20028;-72
2024/01/10 05:24:04;;;;;;;21.25;8.63;;;;;;;-1.49;100.00;102883.00;5043687;28;19913;-71
2024/01/10 05:26:29;;;;;;;24.85;9.40;;;;;;;-1.22;100.00;102886.78;5043625;28;20079;-71
2024/01/10 05:28:54;;;;;;;19.00;8.88;;;;;;;-1.12;100.00;102895.31;5027507;28;20021;-71
2024/01/10 05:31:20;;;;;;;21.40;8.75;;;;;;;-1.13;100.00;102883.94;5025390;28;20029;-71
2024/01/10 05:33:45;;;;;;;19.25;9.38;;;;;;;-1.04;100.00;102882.88;5025952;28;20116;-72
2024/01/10 05:36:13;;;;;;;23.77;10.68;;;;;;;-1.14;100.00;102870.91;5028427;28;20060;-71
2024/01/10 05:38:40;;;;;;;26.30;9.55;;;;;;;-1.30;100.00;102854.66;5045133;28;20041;-71
2024/01/10 05:41:05;;;;;;;25.75;10.15;;;;;;;-1.36;100.00;102854.78;5039415;28;20546;-71
2024/01/10 05:43:31;;;;;;;;;;;;;;;-1.15;100.00;102866.53;5041846;28;20120;-71
2024/01/10 05:45:56;;;;;;;;;;;;;;;-1.07;100.00;102868.09;5026832;28;20007;-71
2024/01/10 05:48:28;;;;;;;28.10;10.60;;;;;;;-0.99;100.00;102870.53;5045659;28;19913;-71
2024/01/10 05:50:53;;;;;;;23.38;10.68;;;;;;;-0.98;100.00;102868.78;5046754;28;20032;-72
2024/01/10 05:53:18;;;;;;;;;;;;;;;-0.96;100.00;102864.34;5028979;28;20067;-71
2024/01/10 05:55:44;;;;;;;21.33;9.40;;;;;;;-0.99;100.00;102849.56;5034059;28;19913;-71
2024/01/10 05:58:09;;;;;;;;;;;;;;;-0.95;100.00;102851.22;5049081;28;20074;-72
2024/01/10 06:00:35;;;;;;;24.73;9.98;;;;;;;-0.93;100.00;102852.03;5030680;28;19913;-71
2024/01/10 06:03:00;;;;;;;;;;;;;;;-0.86;100.00;102856.25;5044711;28;20041;-72
2024/01/10 06:05:25;;;;;;;27.83;13.13;;;;;;;-1.20;100.00;102815.97;5052557;28;19916;-71
2024/01/10 06:07:51;;;;;;;32.33;13.98;;;;;;;-1.13;100.00;102831.53;5061592;28;20115;-72
2024/01/10 06:10:17;;;;;;;37.08;16.38;;;;;;;-1.00;100.00;102847.84;5040262;28;20039;-72
2024/01/10 06:12:42;;;;;;;33.17;14.27;;;;;;;-0.98;100.00;102834.72;5047647;28;20029;-72
2024/01/10 06:15:07;;;;;;;;;;;;;;;-0.95;100.00;102834.63;5034066;28;20033;-71
2024/01/10 06:17:35;;;;;;;22.87;10.10;;;;;;;-0.90;100.00;102833.59;5048405;28;19912;-71
2024/01/10 06:20:01;;;;;;;26.80;12.73;;;;;;;-1.06;100.00;102821.75;5048341;28;20268;-71
2024/01/10 06:22:26;;;;;;;;;;;;;;;-1.03;100.00;102826.94;5048472;28;20032;-71
2024/01/10 06:24:51;;;;;;;22.83;9.77;;;;;;;-0.95;100.00;102822.38;5062782;28;19912;-71
2024/01/10 06:27:18;;;;;;;25.05;10.25;;;;;;;-1.05;100.00;102807.78;5030589;28;20278;-72
2024/01/10 06:29:44;;;;;;;25.25;9.68;;;;;;;-0.99;100.00;102815.47;5047023;28;20028;-73
2024/01/10 06:32:10;;;;;;;;;;;;;;;-0.99;100.00;102810.22;5030567;28;20155;-72
2024/01/10 06:34:35;;;;;;;31.23;12.30;;;;;;;-1.12;100.00;102795.72;5039034;28;19913;-72
2024/01/10 06:37:01;;;;;;;;;;;;;;;-1.12;100.00;102795.72;5063196;28;20033;-72
2024/01/10 06:39:27;;;;;;;25.53;10.70;;;;;;;-1.04;100.00;102799.00;5046960;28;19913;-71
2024/01/10 06:41:52;;;;;;;26.33;11.13;;;;;;;-1.03;100.00;102795.50;5047239;28;20036;-72
2024/01/10 06:44:18;;;;;;;;;;;;;;;-0.99;100.00;102796.25;5048293;28;20021;-72
2024/01/10 06:46:44;;;;;;;33.85;12.63;;;;;;;-1.04;100.00;102788.50;5047532;28;19916;-72
2024/01/10 06:49:10;;;;;;;30.70;10.90;;;;;;;-0.97;100.00;102789.22;5043782;28;20029;-72
2024/01/10 06:51:35;;;;;;;25.10;9.95;;;;;;;-0.93;100.00;102801.38;5033832;28;20033;-71
2024/01/10 06:54:03;;;;;;;28.60;9.90;;;;;;;-0.89;100.00;102797.75;5038499;28;20037;-72
2024/01/10 06:56:32;;;;;;;24.77;9.65;;;;;;;-0.83;100.00;102809.84;5045964;28;20044;-72
2024/01/10 06:58:58;;;;;;;28.30;11.90;;;;;;;-0.82;100.00;102803.69;5044347;28;20047;-72
2024/01/10 07:01:24;;;;;;;27.35;9.95;;;;;;;-0.91;100.00;102794.31;5045326;28;20051;-72
2024/01/10 07:03:50;;;;;;;;;;;;;;;-0.83;100.00;102796.75;5044728;28;20041;-72
2024/01/10 07:06:15;;;;;;;30.90;11.13;;;;;;;-0.82;100.00;102795.81;5054698;28;19958;-71
2024/01/10 07:08:42;;;;;;;;;;;;;;;-0.77;100.00;102800.06;5049255;28;20026;-71
2024/01/10 07:11:08;;;;;;;28.20;9.50;;;;;;;-0.78;100.00;102797.47;5040922;28;19919;-72
2024/01/10 07:13:33;;;;;;;;;;;;;;;-0.78;100.00;102787.00;5046847;28;20261;-72
2024/01/10 07:16:01;;;;;;;32.85;11.73;;;;;;;-0.81;100.00;102790.56;5034050;28;19927;-71
2024/01/10 07:18:28;;;;;;;23.67;10.50;;;;;;;-0.85;100.00;102781.88;5044844;28;20036;-72
2024/01/10 07:20:53;;;;;;;32.15;11.30;;;;;;;-0.82;100.00;102787.97;5045343;28;20461;-72
2024/01/10 07:23:18;;;;;;;36.47;13.77;;;;;;;-0.80;100.00;102792.25;5026168;28;20095;-72
2024/01/10 07:25:44;;;;;;;28.45;12.80;;;;;;;-0.82;100.00;102783.59;5045302;28;20132;-71
2024/01/10 07:28:09;;;;;;;39.05;14.80;;;;;;;-0.87;100.00;102767.97;5044515;28;20044;-71
2024/01/10 07:30:35;;;;;;;;;;;;;;;-0.89;100.00;102772.41;5045698;28;20032;-71
2024/01/10 07:33:01;;;;;;;36.22;15.52;;;;;;;-0.87;100.00;102775.84;5037856;28;19965;-72
2024/01/10 07:35:27;;;;;;;;;;;;;;;-0.85;100.00;102779.25;5033095;28;20037;-72
2024/01/10 07:37:52;;;;;;;38.28;12.15;;;;;;;-0.97;100.00;102758.59;5044111;28;20023;-72
2024/01/10 07:40:18;;;;;;;;;;;;;;;-1.04;100.00;102749.19;5018680;28;20041;-71
2024/01/10 07:42:43;;;;;;;31.27;12.97;;;;;;;-0.95;100.00;102771.69;5026471;28;20003;-72
2024/01/10 07:45:09;;;;;;;33.15;12.90;;;;;;;-1.02;100.00;102755.25;5033417;28;20045;-71
2024/01/10 07:47:37;;;;;;;30.20;11.48;;;;;;;-1.01;100.00;102751.72;5042119;28;20040;-71
2024/01/10 07:50:07;;;;;;;28.27;11.50;;;;;;;-0.90;100.00;102768.03;5036143;28;20072;-72
2024/01/10 07:52:33;;;;;;;32.33;11.80;;;;;;;-1.02;100.00;102744.75;5021661;28;20488;-71
2024/01/10 07:54:58;;;;;;;;;;;;;;;-0.95;100.00;102745.47;5025906;28;20032;-72
2024/01/10 07:57:23;;;;;;;28.73;10.85;;;;;;;-0.89;100.00;102753.16;5045311;28;19916;-71
2024/01/10 07:59:49;;;;;;;25.75;10.13;;;;;;;-0.86;100.00;102743.47;5046420;28;20029;-71
2024/01/10 08:02:14;;;;;;;28.35;10.73;;;;;;;-0.78;100.00;102753.75;5046549;28;20078;-72
2024/01/10 08:04:39;;;;;;;26.40;11.43;;;;;;;-0.87;100.00;102733.88;5028953;28;20021;-71
2024/01/10 08:07:05;;;;;;;;;;;;;;;-0.89;100.00;102727.81;5015595;28;20061;-72
2024/01/10 08:09:30;;;;;;;23.90;10.10;;;;;;;-0.81;100.00;102735.47;5033513;28;19920;-72
2024/01/10 08:11:55;;;;;;;27.83;10.45;;;;;;;-0.91;100.00;102719.13;5026468;28;20551;-72
2024/01/10 08:14:20;;;;;;;;;;;;;;;-0.79;100.00;102732.81;5039189;28;20053;-72
2024/01/10 08:16:46;;;;;;;27.70;10.73;;;;;;;-0.81;100.00;102718.88;5027362;28;19913;-71
2024/01/10 08:19:11;;;;;;;28.15;11.57;;;;;;;-0.72;100.00;102719.50;5045217;28;20442;-71
2024/01/10 08:21:36;;;;;;;;;;;;;;;-0.64;100.00;102725.38;5046579;28;20512;-71
2024/01/10 08:24:02;;;;;;;44.60;8.67;;;;;;;-0.59;100.00;102716.53;5045758;28;20265;-72
2024/01/10 08:26:28;;;;;;;27.25;9.40;;;;;;;-0.62;100.00;102701.72;5038803;28;20143;-72
2024/01/10 08:28:53;;;;;;;28.50;9.45;;;;;;;-0.60;100.00;102705.19;5035954;28;20040;-72
2024/01/10 08:31:19;;;;;;;24.17;10.15;;;;;;;-0.62;100.00;102695.63;5046292;28;20033;-72
2024/01/10 08:33:45;;;;;;;24.30;10.80;;;;;;;-0.54;100.00;102699.78;5043806;28;20483;-71
2024/01/10 08:36:10;;;;;;;;;;;;;;;-0.73;100.00;102667.06;5031752;28;20021;-71
2024/01/10 08:38:36;;;;;;;22.52;9.40;;;;;;;-0.55;100.00;102677.03;5059646;28;20333;-72
2024/01/10 08:41:03;;;;;;;22.55;11.10;;;;;;;-0.42;100.00;102688.06;5029275;28;20040;-72
2024/01/10 08:43:28;;;;;;;23.90;10.40;;;;;;;-0.32;100.00;102688.66;5042433;28;20090;-72
2024/01/10 08:45:53;;;;;;;;;;;;;;;-0.36;100.00;102684.41;5044014;28;20032;-72
2024/01/10 08:48:19;;;;;;;18.33;9.80;;;;;;;-0.35;100.00;102667.72;5043373;28;20315;-72
2024/01/10 08:50:44;;;;;;;20.55;9.30;;;;;;;-0.23;100.00;102667.38;5045997;28;20032;-72
2024/01/10 08:53:10;;;;;;;20.52;8.45;;;;;;;-0.26;100.00;102655.22;5044063;28;20033;-72
2024/01/10 08:55:37;;;;;;;;;;;;;;;-0.24;100.00;102645.50;5046021;28;20028;-72
2024/01/10 08:58:03;;;;;;;25.17;10.55;;;;;;;-0.20;100.00;102638.41;5043462;28;19919;-72
2024/01/10 09:00:28;;;;;;;;;;;;;;;-0.18;100.00;102641.84;5046472;28;20028;-72
2024/01/10 09:02:54;;;;;;;22.42;11.05;;;;;;;-0.17;100.00;102640.94;5044329;28;19919;-72
2024/01/10 09:05:21;;;;;;;24.05;9.52;;;;;;;-0.14;100.00;102634.72;5044313;28;20423;-72
2024/01/10 09:07:47;;;;;;;23.60;9.75;;;;;;;-0.07;100.00;102647.63;5044510;28;20032;-72
2024/01/10 09:10:12;;;;;;;24.77;9.23;;;;;;;-0.05;100.00;102651.09;5040110;28;20029;-72
2024/01/10 09:12:38;;;;;;;22.02;9.95;;;;;;;0.00;100.00;102656.19;5028907;28;20072;-72
2024/01/10 09:15:04;;;;;;;23.83;10.90;;;;;;;0.08;100.00;102655.94;5040557;28;20029;-72
2024/01/10 09:17:29;;;;;;;24.60;11.05;;;;;;;0.17;100.00;102666.16;5039278;28;20076;-72
2024/01/10 09:19:54;;;;;;;24.42;10.70;;;;;;;0.20;100.00;102658.19;5032391;28;20129;-72
2024/01/10 09:22:20;;;;;;;23.73;11.13;;;;;;;0.20;100.00;102645.03;5023294;28;20107;-72
2024/01/10 09:24:45;;;;;;;24.67;9.35;;;;;;;0.25;100.00;102631.75;5031420;28;20032;-71
2024/01/10 09:27:11;;;;;;;24.85;11.60;;;;;;;0.28;100.00;102632.53;5046770;28;20033;-72
2024/01/10 09:29:36;;;;;;;24.95;10.05;;;;;;;0.40;100.00;102633.91;5064833;28;20461;-72
2024/01/10 09:32:02;;;;;;;21.23;9.82;;;;;;;0.39;100.00;102630.38;5039281;28;20039;-71
2024/01/10 09:34:27;;;;;;;21.52;8.50;;;;;;;0.36;100.00;102604.22;5047756;28;20040;-72
2024/01/10 09:36:53;;;;;;;20.98;8.88;;;;;;;0.41;100.00;102599.66;5030006;28;20041;-72
2024/01/10 09:39:18;;;;;;;22.92;9.32;;;;;;;0.45;100.00;102597.81;5013442;28;20099;-72
2024/01/10 09:41:50;;;;;;;19.15;8.05;;;;;;;0.44;100.00;102575.06;5044522;28;20029;-72
2024/01/10 09:44:17;;;;;;;23.80;10.05;;;;;;;0.35;100.00;102557.84;5046797;28;20404;-72
2024/01/10 09:46:50;;;;;;;21.15;11.13;;;;;;;0.53;100.00;102597.53;5047781;28;20825;-72
2024/01/10 09:49:17;;;;;;;23.30;11.68;;;;;;;0.59;100.00;102607.84;5032362;28;20025;-72
2024/01/10 09:51:42;;;;;;;20.02;9.40;;;;;;;0.58;100.00;102591.19;5047531;28;20029;-72
2024/01/10 09:54:08;;;;;;;19.05;8.93;;;;;;;0.56;100.00;102585.16;5047227;28;20033;-73
2024/01/10 09:56:33;;;;;;;18.10;8.30;;;;;;;0.65;100.00;102589.22;5030941;28;20090;-72
2024/01/10 09:59:01;;;;;;;15.93;7.65;;;;;;;0.74;100.00;102591.53;5048669;28;20464;-72
2024/01/10 10:01:26;;;;;;;20.33;10.02;;;;;;;0.68;100.00;102569.84;5048981;28;20125;-72
2024/01/10 10:03:53;;;;;;;15.10;7.78;;;;;;;0.74;100.00;102574.91;5030526;28;20391;-72
2024/01/10 10:06:18;;;;;;;12.23;6.65;;;;;;;0.68;100.00;102561.97;5044571;28;20025;-73
2024/01/10 10:08:44;;;;;;;10.30;4.43;;;;;;;0.61;100.00;102549.06;5035030;28;20103;-72
2024/01/10 10:11:14;;;;;;;9.40;4.68;;;;;;;0.76;100.00;102547.66;5047928;28;20033;-71
2024/01/10 10:13:41;;;;;;;8.65;5.32;;;;;;;0.61;100.00;102495.63;5038925;28;20499;-72
2024/01/10 10:16:09;;;;;;;12.15;5.57;;;;;;;0.63;100.00;102507.81;5030569;28;20088;-72
2024/01/10 10:18:35;;;;;;;9.68;4.95;;;;;;;0.80;100.00;102533.47;5047291;28;20025;-71
2024/01/10 10:21:11;;;;;;;;;;;;;;;0.76;100.00;102502.94;5029482;28;20037;-72
2024/01/10 10:23:37;;;;;;;6.22;3.80;;;;;;;0.83;100.00;102491.28;5010623;28;20000;-71
2024/01/10 10:26:19;;;;;;;7.70;4.68;;;;;;;0.94;100.00;102485.63;5038002;28;20025;-72
2024/01/10 10:28:44;;;;;;;10.00;6.15;;;;;;;1.01;100.00;102483.63;5027695;28;20032;-72
2024/01/10 10:31:11;;;;;;;7.75;4.88;;;;;;;0.94;100.00;102443.56;5031785;28;20036;-72
2024/01/10 10:33:37;;;;;;;10.85;6.45;;;;;;;0.84;100.00;102408.88;5036445;28;20120;-72
2024/01/10 10:36:03;;;;;;;;;;;;;;;0.81;100.00;102401.09;5045721;28;20337;-72
2024/01/10 10:38:28;;;;;;;9.25;5.40;;;;;;;0.97;100.00;102421.53;5048227;28;20476;-72
2024/01/10 10:40:55;;;;;;;8.70;5.43;;;;;;;0.95;100.00;102376.03;5047155;28;20439;-72
2024/01/10 10:43:21;;;;;;;10.68;6.28;;;;;;;0.77;100.00;102335.53;5057333;28;20052;-72
2024/01/10 10:45:48;;;;;;;11.57;6.40;;;;;;;0.81;100.00;102366.91;5038591;28;20041;-72
2024/01/10 10:48:17;;;;;;;10.63;6.22;;;;;;;0.94;100.00;102382.22;5037990;28;20040;-72
2024/01/10 10:50:58;;;;;;;12.73;5.93;;;;;;;1.07;100.00;102393.09;5047289;28;20032;-72
2024/01/10 10:53:27;;;;;;;10.05;6.40;;;;;;;1.16;100.00;102384.84;5039482;28;20036;-72
2024/01/10 10:55:53;;;;;;;12.88;6.47;;;;;;;1.00;100.00;102345.13;5029824;28;20021;-72
2024/01/10 10:58:19;;;;;;;10.32;5.95;;;;;;;0.75;100.00;102290.91;5046711;28;20108;-72
2024/01/10 11:00:47;;;;;;;9.68;5.95;;;;;;;0.84;100.00;102337.88;5029776;28;20029;-73
2024/01/10 11:03:13;;;;;;;11.90;7.28;;;;;;;1.00;100.00;102367.03;5014319;28;20025;-72
2024/01/10 11:05:41;;;;;;;12.52;7.15;;;;;;;1.04;100.00;102362.53;5047584;28;20051;-72
2024/01/10 11:08:11;;;;;;;12.88;7.60;;;;;;;1.01;100.00;102331.09;5029428;28;20036;-71
2024/01/10 11:10:39;;;;;;;11.82;7.18;;;;;;;1.04;100.00;102354.63;5046338;28;20047;-72
2024/01/10 11:13:28;;;;;;;10.75;6.20;;;;;;;1.07;100.00;102362.38;5045276;28;20436;-72
2024/01/10 11:16:19;;;;;;;15.60;9.13;;;;;;;0.63;100.00;102265.09;5042915;28;20480;-72
2024/01/10 11:19:30;;;;;;;11.95;6.13;;;;;;;0.79;100.00;102312.66;5046168;28;20037;-72
2024/01/10 11:22:07;;;;;;;12.45;6.13;;;;;;;0.79;100.00;102310.88;5023917;28;20024;-72